Terminal Aerodrome Forecast
Issued by NWS

Home | Current Version | Previous Version | Text Only | Print | Product List | Glossary On
Versions: 1 2 3 4 5 6 7 8 9 10 11 12 13 14 15 16 17 18 19 20 21 22 23 24 25 26 27 28 29
000
FTUS42 KCAE 281700
TAFOGB
TAF
KOGB 281721Z 2818/0118 06010KT P6SM BKN100
     FM282300 06008KT P6SM VCSH OVC030
     FM010600 04005KT 5SM -RA OVC012
     FM011200 03005KT 4SM -RA BR OVC008=

USA.gov is the U.S. government's official web portal to all federal, state and local government web resources and services.